Airfield :
LOGIN :

Register | Disclaimer

   EN    FR    IT 

 










Legend :    VFR   Marginal VFR   IFR   Intensive IFR   Very Intensive IFR
Visi :
Ceiling :
>= 8 km
>= 3000ft
5 to 8 km
1000 to 3000 ft
1500m to 5 km
500 to 1000 ft
800 to 1500m
200 to 500 ft
< 800m
< 200 ft
Symbols :   Thunderstorms  Fog  Heavy snow  Heavy precipitations  Wind > 20 kt
SIGMETs :     Misc.  Thunderstorms  Icing  Turbulence  Mountain Waves  Volcanic Ashes






- Airport Elevation : 1367 ft
- IATA code : FDH


EDNY - Friedrichshafen

CURRENT METAR :
  • 190450Z VRB02KT 9999 BKN054 M01/M02 Q1030

EXPIRED METARs :
  • 190420Z AUTO /////KT ///V/// 9999 // BKN056/// ///// Q////
  • 190350Z AUTO /////KT ///V/// 9999 // SCT054/// ///// Q////
  • 190320Z AUTO /////KT ///V/// 9999 // BKN053/// ///// Q////
  • 190250Z AUTO /////KT ///V/// 9999 // BKN053/// OVC068/// ///// Q////
  • 190220Z AUTO /////KT ///V/// 9999 // FEW048/// BKN055/// OVC073/// ///// Q////

TAF TAF EDNY
Valid from the 19 at 00:00 until the 20 at 00:00 UTC


182300Z 1900/1924 VRB03KT 9999 FEW020 BKN045
BECMG 1905/1907 03005KT
BECMG 1911/1913 04010KT



MET'MAP, your aeronautical weather chart ! - Copyright ORBIFLY December 2007 - Disclaimer

ORBIFLY MET'MAP TEAM :

Programming & Development : Alexandra Zaïnal
Concept & original design : Baudouin d'Aumeries
Assistance for programming : Marc-Olivier Méhu
Technical & hardware support : Manuel Goepfert

Contact : metmap@orbifly.com




SOURCES & CREDITS :

   NOAA